Time;durP1;ratioP1;P1;durP2;ratioP2;P2;SDS_P1;SDS_P2;PMS_P1;PMS_P2;Temp;Humidity;BMP_temperature;BMP_pressure;BME280_temperature;BME280_humidity;BME280_pressure;Samples;Min_cycle;Max_cycle;Signal;HPM_P1;HPM_P2
2024/03/17 00:01:04;;;;;;;12.15;3.45;;;;;;;6.02;97.24;100272.66;1732351;82;25372;-63
2024/03/17 00:03:32;;;;;;;9.88;3.55;;;;;;;5.97;97.22;100271.59;1725801;82;27083;-63
2024/03/17 00:06:01;;;;;;;14.13;3.90;;;;;;;5.94;97.17;100269.47;1741311;81;25990;-64
2024/03/17 00:08:29;;;;;;;12.25;3.58;;;;;;;5.90;96.65;100271.08;1741682;81;25511;-59
2024/03/17 00:10:57;;;;;;;14.80;2.75;;;;;;;5.87;96.37;100277.00;1741351;81;25625;-58
2024/03/17 00:13:25;;;;;;;10.23;3.00;;;;;;;5.85;96.42;100270.32;1741683;81;25442;-58
2024/03/17 00:15:53;;;;;;;16.23;2.83;;;;;;;5.84;96.61;100262.81;1741016;81;27320;-57
2024/03/17 00:18:19;;;;;;;12.05;3.02;;;;;;;5.79;96.11;100275.72;1741258;82;25444;-58
2024/03/17 00:20:46;;;;;;;8.23;2.17;;;;;;;5.77;95.93;100275.20;1741275;82;25595;-58
2024/03/17 00:23:12;;;;;;;14.63;3.05;;;;;;;5.74;95.25;100272.27;1742151;81;25630;-58
2024/03/17 00:25:40;;;;;;;7.47;2.55;;;;;;;5.70;95.01;100281.39;1741401;81;25610;-58
2024/03/17 00:28:09;;;;;;;11.33;2.75;;;;;;;5.68;95.17;100290.26;1741310;81;27289;-57
2024/03/17 00:30:36;;;;;;;16.00;4.97;;;;;;;5.67;94.85;100293.22;1746787;82;25388;-57
2024/03/17 00:33:05;;;;;;;13.72;3.02;;;;;;;5.64;94.45;100297.27;1746874;82;25403;-59
2024/03/17 00:35:31;;;;;;;15.53;2.85;;;;;;;5.61;94.03;100299.95;1746761;81;25621;-59
2024/03/17 00:37:58;;;;;;;12.82;2.70;;;;;;;5.57;93.76;100297.56;1746959;81;25425;-58
2024/03/17 00:40:25;;;;;;;8.10;2.37;;;;;;;5.58;94.10;100305.06;1746806;81;28091;-59
2024/03/17 00:42:54;;;;;;;8.38;2.58;;;;;;;5.56;93.70;100305.34;1746704;82;25534;-59
2024/03/17 00:45:22;;;;;;;13.00;2.95;;;;;;;5.57;93.93;100310.19;1747102;82;25594;-58
2024/03/17 00:47:50;;;;;;;16.75;3.90;;;;;;;5.56;93.55;100299.97;1746868;81;25588;-60
2024/03/17 00:50:18;;;;;;;9.85;2.45;;;;;;;5.55;93.20;100308.30;1746914;81;25416;-58
2024/03/17 00:52:44;;;;;;;8.93;2.42;;;;;;;5.53;92.76;100305.88;1746865;81;27484;-59
2024/03/17 00:55:10;;;;;;;13.50;2.77;;;;;;;5.53;92.00;100305.88;1746704;81;25415;-58
2024/03/17 00:57:37;;;;;;;9.63;2.55;;;;;;;5.50;91.60;100310.48;1717558;82;25533;-59
2024/03/17 01:00:15;;;;;;;11.00;3.02;;;;;;;5.47;91.48;100311.57;1746963;82;26737;-58
2024/03/17 01:02:42;;;;;;;14.98;4.70;;;;;;;5.45;90.54;100313.19;1747074;81;25526;-55
2024/03/17 01:05:10;;;;;;;11.95;2.98;;;;;;;5.41;89.78;100306.73;1747026;81;28090;-59
2024/03/17 01:07:38;;;;;;;10.63;2.20;;;;;;;5.38;88.88;100311.30;1746919;82;25593;-59
2024/03/17 01:10:08;;;;;;;11.22;2.60;;;;;;;5.35;89.06;100307.30;1747016;82;25435;-59
2024/03/17 01:12:36;;;;;;;12.20;2.25;;;;;;;5.33;88.75;100311.32;1746986;82;25715;-55
2024/03/17 01:15:10;;;;;;;9.43;2.27;;;;;;;5.29;86.82;100316.98;1747022;82;25692;-58
2024/03/17 01:17:37;;;;;;;18.48;3.52;;;;;;;5.26;86.41;100314.32;1747069;82;27438;-57
2024/03/17 01:20:06;;;;;;;7.55;1.75;;;;;;;5.23;86.19;100316.99;1746919;81;25621;-58
2024/03/17 01:22:33;;;;;;;8.63;2.60;;;;;;;5.22;85.65;100315.37;1746995;82;25563;-58
2024/03/17 01:24:59;;;;;;;11.35;2.60;;;;;;;5.21;85.47;100323.17;1747036;82;25602;-58
2024/03/17 01:27:25;;;;;;;12.73;2.10;;;;;;;5.20;86.34;100317.53;1747019;82;25479;-58
2024/03/17 01:29:51;;;;;;;14.35;3.00;;;;;;;5.19;85.30;100316.46;1746931;82;27265;-55
2024/03/17 01:32:19;;;;;;;10.93;2.50;;;;;;;5.18;85.29;100318.34;1746920;82;27264;-59
2024/03/17 01:34:47;;;;;;;14.60;2.40;;;;;;;5.14;84.50;100319.16;1746922;81;25475;-56
2024/03/17 01:37:14;;;;;;;17.95;2.55;;;;;;;5.12;84.98;100326.67;1746931;81;25593;-57
2024/03/17 01:39:40;;;;;;;17.45;3.37;;;;;;;5.10;85.09;100334.98;1743811;81;25589;-60
2024/03/17 01:42:08;;;;;;;14.20;3.10;;;;;;;5.07;84.76;100333.38;1739095;82;27426;-60
2024/03/17 01:44:35;;;;;;;14.10;2.50;;;;;;;5.03;84.49;100337.95;1738992;82;25456;-56
2024/03/17 01:47:03;;;;;;;13.98;2.85;;;;;;;5.00;83.81;100338.48;1738968;82;25643;-59
2024/03/17 01:49:31;;;;;;;13.60;4.05;;;;;;;4.96;83.46;100337.97;1739064;82;26156;-57
2024/03/17 01:51:57;;;;;;;15.00;2.60;;;;;;;4.91;83.55;100337.42;1739098;82;25413;-58
2024/03/17 01:54:23;;;;;;;11.90;3.25;;;;;;;4.86;83.18;100336.89;1739054;82;27234;-58
2024/03/17 01:56:50;;;;;;;15.63;2.72;;;;;;;4.82;82.73;100337.72;1738949;82;25639;-58
2024/03/17 01:59:16;;;;;;;13.35;3.95;;;;;;;4.77;82.75;100342.53;1739037;82;25549;-58
2024/03/17 02:01:42;;;;;;;14.73;3.72;;;;;;;4.74;82.77;100343.06;1739007;82;26184;-59
2024/03/17 02:04:09;;;;;;;11.33;2.87;;;;;;;4.72;83.14;100351.12;1739039;82;25457;-57
2024/03/17 02:06:37;;;;;;;14.28;2.65;;;;;;;4.68;82.85;100354.33;1739063;82;26971;-60
2024/03/17 02:09:03;;;;;;;13.15;2.80;;;;;;;4.63;82.35;100348.97;1738896;82;25432;-57
2024/03/17 02:11:33;;;;;;;18.50;4.20;;;;;;;4.59;82.22;100361.82;1738967;82;25477;-57
2024/03/17 02:14:02;;;;;;;14.07;3.35;;;;;;;4.55;82.15;100357.53;1738992;82;26193;-59
2024/03/17 02:16:28;;;;;;;10.98;2.75;;;;;;;4.52;81.73;100358.61;1739234;82;25452;-56
2024/03/17 02:18:59;;;;;;;16.73;2.67;;;;;;;4.46;82.25;100354.59;1718379;82;27406;-57
2024/03/17 02:21:28;;;;;;;14.18;2.92;;;;;;;4.45;82.28;100365.02;1739178;82;25599;-56
2024/03/17 02:23:56;;;;;;;10.90;2.40;;;;;;;4.42;82.49;100356.17;1739070;82;25532;-58
2024/03/17 02:26:27;;;;;;;9.65;3.17;;;;;;;4.42;82.82;100372.23;1738960;81;25865;-58
2024/03/17 02:28:53;;;;;;;10.58;3.08;;;;;;;4.41;82.86;100365.30;1739090;82;25589;-58
2024/03/17 02:31:22;;;;;;;15.38;3.77;;;;;;;4.40;82.96;100361.53;1738981;82;27309;-58
2024/03/17 02:33:49;;;;;;;16.02;3.10;;;;;;;4.39;82.96;100358.58;1739012;82;25627;-59
2024/03/17 02:36:17;;;;;;;8.80;2.60;;;;;;;4.35;82.99;100360.98;1738954;82;25382;-56
2024/03/17 02:41:30;;;;;;;16.42;2.50;;;;;;;4.34;83.07;100363.38;1739199;82;25574;-56
2024/03/17 02:43:56;;;;;;;9.98;2.95;;;;;;;4.30;82.84;100364.45;1738953;82;25788;-57
2024/03/17 02:46:24;;;;;;;15.03;3.65;;;;;;;4.28;83.09;100366.59;1738864;82;25518;-59
2024/03/17 02:48:54;;;;;;;15.72;3.33;;;;;;;4.27;83.15;100362.84;1738980;82;25459;-55
2024/03/17 02:51:24;;;;;;;12.82;3.45;;;;;;;4.26;83.26;100363.92;1738987;82;25704;-58
2024/03/17 02:53:52;;;;;;;15.10;3.62;;;;;;;4.26;83.27;100367.95;1739065;82;25614;-59
2024/03/17 02:56:21;;;;;;;12.50;3.00;;;;;;;4.23;83.23;100373.28;1738991;82;28145;-58
2024/03/17 02:58:51;;;;;;;13.70;3.77;;;;;;;4.23;83.69;100383.98;1739136;82;25721;-57
2024/03/17 03:01:18;;;;;;;14.13;2.75;;;;;;;4.23;83.41;100383.20;1739021;82;25441;-57
2024/03/17 03:03:47;;;;;;;12.70;2.55;;;;;;;4.19;82.95;100385.59;1738928;82;25627;-59
2024/03/17 03:06:19;;;;;;;10.40;2.80;;;;;;;4.11;82.69;100384.22;1739034;82;25617;-57
2024/03/17 03:08:44;;;;;;;13.45;3.02;;;;;;;4.07;82.36;100385.00;1738799;82;27330;-56
2024/03/17 03:11:12;;;;;;;16.73;2.95;;;;;;;4.02;82.47;100382.31;1738852;82;25541;-59
2024/03/17 03:13:44;;;;;;;9.95;2.75;;;;;;;3.98;82.35;100387.39;1739130;82;25545;-56
2024/03/17 03:16:14;;;;;;;9.68;3.15;;;;;;;3.92;82.43;100382.56;1738905;82;25631;-59
2024/03/17 03:18:44;;;;;;;16.15;2.60;;;;;;;3.86;82.33;100379.58;1739151;82;25391;-58
2024/03/17 03:21:12;;;;;;;12.75;3.17;;;;;;;3.80;82.35;100391.34;1739009;82;28392;-58
2024/03/17 03:23:41;;;;;;;15.50;2.58;;;;;;;3.76;82.37;100387.56;1738903;82;25453;-55
2024/03/17 03:26:09;;;;;;;8.75;2.40;;;;;;;3.72;82.30;100387.83;1739134;82;25489;-58
2024/03/17 03:28:38;;;;;;;10.05;2.25;;;;;;;3.67;82.32;100388.60;1738934;82;25698;-58
2024/03/17 03:31:08;;;;;;;15.97;2.63;;;;;;;3.63;82.30;100390.74;1739305;82;25596;-58
2024/03/17 03:33:34;;;;;;;11.35;2.65;;;;;;;3.60;82.32;100393.93;1738700;82;27994;-56
2024/03/17 03:36:08;;;;;;;12.60;3.40;;;;;;;3.55;82.40;100392.82;1738852;82;25619;-56
2024/03/17 03:38:35;;;;;;;15.40;2.67;;;;;;;3.54;82.57;100391.23;1738998;82;25406;-56
2024/03/17 03:41:12;;;;;;;7.70;2.15;;;;;;;3.51;82.46;100388.27;1747881;81;25744;-58
2024/03/17 03:43:38;;;;;;;11.33;2.47;;;;;;;3.51;82.84;100386.39;1752819;81;25459;-57
2024/03/17 03:46:08;;;;;;;9.65;2.65;;;;;;;3.50;82.93;100387.44;1752717;81;27889;-60
2024/03/17 03:48:36;;;;;;;9.95;2.37;;;;;;;3.52;82.84;100385.34;1725062;81;25695;-59
2024/03/17 03:51:12;;;;;;;12.68;2.30;;;;;;;3.54;83.21;100387.73;1752765;81;25181;-57
2024/03/17 03:53:39;;;;;;;8.68;2.00;;;;;;;3.55;83.02;100386.67;1725822;81;25658;-57
2024/03/17 03:56:10;;;;;;;13.15;2.20;;;;;;;3.55;82.83;100389.35;1752751;81;25145;-60
2024/03/17 03:58:40;;;;;;;15.90;2.50;;;;;;;3.54;82.69;100385.87;1735488;81;27235;-58
2024/03/17 04:01:15;;;;;;;11.03;2.27;;;;;;;3.54;82.83;100387.22;1752648;81;26041;-58
2024/03/17 04:03:41;;;;;;;9.80;2.15;;;;;;;3.53;82.76;100390.94;1725652;81;25480;-55
2024/03/17 04:06:11;;;;;;;11.88;2.30;;;;;;;3.52;82.59;100395.21;1752700;81;25622;-59
2024/03/17 04:08:42;;;;;;;13.55;2.30;;;;;;;3.49;82.37;100391.20;1752789;81;25450;-59
2024/03/17 04:11:12;;;;;;;9.88;2.67;;;;;;;3.46;82.39;100389.58;1752814;81;27375;-57
2024/03/17 04:13:40;;;;;;;13.50;3.00;;;;;;;3.43;82.37;100389.55;1752583;81;25448;-58
2024/03/17 04:16:10;;;;;;;12.75;2.33;;;;;;;3.39;82.12;100391.14;1752810;81;25375;-57
2024/03/17 04:18:37;;;;;;;14.95;3.15;;;;;;;3.39;82.52;100390.31;1752843;81;26486;-59
2024/03/17 04:21:07;;;;;;;10.23;2.92;;;;;;;3.38;82.62;100394.07;1752720;81;25622;-58
2024/03/17 04:23:37;;;;;;;17.42;3.20;;;;;;;3.35;82.69;100390.86;1752794;81;29433;-59
2024/03/17 04:26:07;;;;;;;13.93;3.55;;;;;;;3.34;82.93;100396.46;1752607;81;25389;-57
2024/03/17 04:28:35;;;;;;;14.80;3.75;;;;;;;3.32;82.80;100392.70;1752740;81;25561;-59
2024/03/17 04:31:06;;;;;;;14.25;3.75;;;;;;;3.30;82.82;100394.02;1752830;81;25653;-59
2024/03/17 04:33:38;;;;;;;19.40;3.45;;;;;;;3.29;82.95;100395.09;1752689;81;25483;-57
2024/03/17 04:36:08;;;;;;;17.98;6.10;;;;;;;3.27;83.01;100398.53;1752705;81;27366;-59
2024/03/17 04:38:37;;;;;;;12.80;3.47;;;;;;;3.25;83.17;100399.33;1752707;81;25574;-60
2024/03/17 04:41:08;;;;;;;13.88;3.72;;;;;;;3.25;83.27;100400.66;1722204;82;25535;-60
2024/03/17 04:43:34;;;;;;;14.13;4.35;;;;;;;3.24;83.64;100398.53;1746012;81;25686;-58
2024/03/17 04:46:07;;;;;;;17.37;3.50;;;;;;;3.25;83.82;100402.00;1745975;82;25550;-59
2024/03/17 04:48:35;;;;;;;11.53;3.35;;;;;;;3.26;84.00;100395.06;1719904;82;27223;-56
2024/03/17 04:51:01;;;;;;;14.38;4.37;;;;;;;3.28;84.24;100392.13;1745968;82;25860;-56
2024/03/17 04:53:31;;;;;;;15.48;3.83;;;;;;;3.30;84.41;100393.50;1746437;81;25603;-57
2024/03/17 04:56:04;;;;;;;;;;;;;;;3.34;84.41;100399.93;1748551;82;25671;-59
2024/03/17 04:58:35;;;;;;;15.15;4.45;;;;;;;3.38;84.54;100400.22;1707896;84;25410;-57
2024/03/17 05:01:12;;;;;;;12.50;3.22;;;;;;;3.40;84.56;100395.95;1707754;84;26837;-59
2024/03/17 05:03:41;;;;;;;14.53;4.10;;;;;;;3.43;84.42;100398.11;1707663;84;25576;-59
2024/03/17 05:06:07;;;;;;;11.10;3.15;;;;;;;3.46;84.30;100395.72;1708000;83;25619;-58
2024/03/17 05:08:35;;;;;;;12.68;3.85;;;;;;;3.49;84.23;100404.58;1707670;84;26827;-59
2024/03/17 05:11:05;;;;;;;13.08;4.28;;;;;;;3.52;84.21;100402.72;1707883;84;25617;-59
2024/03/17 05:13:35;;;;;;;13.43;3.90;;;;;;;3.55;84.07;100398.71;1707601;84;27270;-58
2024/03/17 05:16:06;;;;;;;9.88;2.98;;;;;;;3.57;83.88;100397.91;1707580;84;25631;-58
2024/03/17 05:18:33;;;;;;;18.42;3.65;;;;;;;3.60;83.95;100393.93;1707839;84;25192;-57
2024/03/17 05:21:06;;;;;;;9.50;3.30;;;;;;;3.62;83.16;100396.60;1707784;84;25636;-59
2024/03/17 05:23:38;;;;;;;18.00;3.62;;;;;;;3.65;83.47;100401.44;1689211;84;25510;-60
2024/03/17 05:26:05;;;;;;;15.85;4.28;;;;;;;3.67;83.25;100403.31;1707712;84;26855;-58
2024/03/17 05:28:31;;;;;;;14.28;3.95;;;;;;;3.70;83.16;100396.11;1707445;84;25549;-59
2024/03/17 05:30:58;;;;;;;18.92;3.92;;;;;;;3.76;83.41;100405.50;1707811;84;25623;-59
2024/03/17 05:33:29;;;;;;;14.33;3.50;;;;;;;3.77;82.78;100401.77;1707801;84;25680;-59
2024/03/17 05:36:00;;;;;;;18.40;3.83;;;;;;;3.81;83.03;100402.84;1707707;84;25456;-60
2024/03/17 05:38:30;;;;;;;14.83;4.12;;;;;;;3.85;83.29;100402.62;1707843;84;27420;-56
2024/03/17 05:41:01;;;;;;;15.63;3.58;;;;;;;3.87;82.87;100407.97;1707622;83;25386;-58
2024/03/17 05:43:38;;;;;;;12.55;3.52;;;;;;;3.92;82.93;100403.97;1707855;84;25486;-59
2024/03/17 05:46:10;;;;;;;19.57;4.65;;;;;;;3.95;82.90;100403.17;1707681;84;25621;-59
2024/03/17 05:48:40;;;;;;;12.13;3.45;;;;;;;3.98;82.30;100401.31;1698015;84;25581;-59
2024/03/17 05:51:16;;;;;;;15.93;4.22;;;;;;;4.02;82.46;100407.74;1706347;84;27396;-55
2024/03/17 05:53:45;;;;;;;14.95;3.67;;;;;;;4.05;82.28;100404.03;1707670;84;25884;-55
2024/03/17 05:56:15;;;;;;;15.43;4.08;;;;;;;4.11;82.37;100408.31;1708036;83;25617;-56
2024/03/17 05:58:43;;;;;;;13.20;4.28;;;;;;;4.16;82.89;100407.54;1707804;84;27123;-55
2024/03/17 06:01:11;;;;;;;16.17;3.90;;;;;;;4.24;83.17;100413.73;1708011;84;25617;-59
2024/03/17 06:03:41;;;;;;;15.18;4.03;;;;;;;4.29;82.70;100402.20;1698024;84;28357;-55
2024/03/17 06:06:12;;;;;;;10.23;4.35;;;;;;;4.36;83.00;100416.69;1696290;84;27106;-55
2024/03/17 06:08:40;;;;;;;19.65;4.08;;;;;;;4.41;83.30;100415.36;1707841;84;25403;-58
2024/03/17 06:11:08;;;;;;;15.55;3.60;;;;;;;4.46;83.01;100416.70;1707903;84;25619;-56
2024/03/17 06:13:37;;;;;;;11.83;4.40;;;;;;;4.47;82.71;100408.95;1707858;84;25435;-57
2024/03/17 06:16:05;;;;;;;10.43;3.47;;;;;;;4.56;82.09;100411.37;1707673;84;26897;-58
2024/03/17 06:18:33;;;;;;;13.18;3.30;;;;;;;4.61;81.68;100414.05;1707945;84;25283;-61
2024/03/17 06:20:59;;;;;;;11.95;3.35;;;;;;;4.63;81.01;100412.45;1707800;84;25592;-60
2024/03/17 06:23:27;;;;;;;16.90;3.98;;;;;;;4.70;81.04;100402.81;1746499;81;25601;-60
2024/03/17 06:25:57;;;;;;;11.70;3.37;;;;;;;4.89;80.73;100408.45;1746504;82;25390;-59
2024/03/17 06:28:26;;;;;;;11.60;3.15;;;;;;;5.08;81.75;100413.55;1746584;82;27336;-59
2024/03/17 06:30:59;;;;;;;14.73;3.17;;;;;;;5.28;81.10;100419.45;1746516;82;25618;-58
2024/03/17 06:33:29;;;;;;;14.70;3.75;;;;;;;5.37;80.71;100417.02;1746572;82;25549;-59
2024/03/17 06:35:56;;;;;;;10.15;3.37;;;;;;;5.42;79.60;100417.00;1746418;82;25738;-56
2024/03/17 06:38:23;;;;;;;9.90;3.65;;;;;;;5.45;79.14;100419.67;1746566;82;25605;-57
2024/03/17 06:40:53;;;;;;;12.20;3.80;;;;;;;5.49;79.01;100432.28;1746380;82;27784;-58
2024/03/17 06:43:22;;;;;;;9.35;3.50;;;;;;;5.52;78.67;100421.01;1746425;81;25615;-59
2024/03/17 06:46:01;;;;;;;13.05;3.55;;;;;;;5.54;77.68;100432.27;1746480;82;25594;-62
2024/03/17 06:48:30;;;;;;;15.95;4.00;;;;;;;5.52;77.35;100424.23;1746407;82;25633;-60
2024/03/17 06:50:57;;;;;;;12.47;3.27;;;;;;;5.54;77.74;100416.17;1746605;82;25467;-59
2024/03/17 06:53:27;;;;;;;14.68;4.15;;;;;;;5.68;78.08;100424.99;1746610;81;27853;-57
2024/03/17 06:56:00;;;;;;;9.73;3.02;;;;;;;5.73;75.63;100410.22;1746445;82;25533;-60
2024/03/17 06:58:29;;;;;;;12.07;3.40;;;;;;;5.81;75.70;100411.00;1746486;82;25413;-60
2024/03/17 07:01:01;;;;;;;13.10;2.70;;;;;;;5.93;76.32;100424.91;1745841;81;25624;-60
2024/03/17 07:03:32;;;;;;;13.03;3.27;;;;;;;5.94;74.20;100421.16;1746294;82;25424;-58
2024/03/17 07:06:03;;;;;;;14.65;4.05;;;;;;;5.93;75.19;100424.11;1746275;82;27471;-58
2024/03/17 07:08:31;;;;;;;10.38;3.37;;;;;;;5.92;74.80;100418.47;1746445;82;25579;-57
2024/03/17 07:11:05;;;;;;;14.80;3.67;;;;;;;5.90;74.54;100417.40;1746322;82;25526;-59
2024/03/17 07:13:39;;;;;;;8.13;2.72;;;;;;;5.90;73.53;100423.31;1746373;82;27050;-59
2024/03/17 07:16:09;;;;;;;7.62;3.00;;;;;;;5.88;73.78;100428.16;1741499;82;25595;-59
2024/03/17 07:18:38;;;;;;;14.80;2.95;;;;;;;5.88;74.40;100433.53;1740979;82;27351;-59
2024/03/17 07:21:09;;;;;;;12.55;3.30;;;;;;;5.88;73.46;100430.30;1744529;82;26055;-58
2024/03/17 07:23:38;;;;;;;14.38;3.52;;;;;;;5.84;73.51;100435.14;1746204;82;25593;-58
2024/03/17 07:26:05;;;;;;;;;;;;;;;5.76;73.28;100429.26;1748677;82;25685;-58
2024/03/17 07:28:33;;;;;;;12.50;3.50;;;;;;;5.76;73.46;100433.28;1707885;84;25638;-57
2024/03/17 07:31:00;;;;;;;12.47;2.92;;;;;;;5.80;73.14;100437.56;1707867;84;27313;-58
2024/03/17 07:33:28;;;;;;;8.85;3.33;;;;;;;5.87;74.64;100439.42;1707652;84;25391;-59
2024/03/17 07:36:00;;;;;;;16.97;3.50;;;;;;;5.95;74.78;100444.77;1707441;84;25619;-56
2024/03/17 07:38:30;;;;;;;10.78;2.92;;;;;;;5.95;73.30;100442.09;1707743;84;26380;-59
2024/03/17 07:41:06;;;;;;;11.97;2.80;;;;;;;5.95;73.11;100438.86;1707802;83;25216;-59
2024/03/17 07:43:37;;;;;;;14.28;2.70;;;;;;;6.00;73.93;100443.99;1708032;84;27341;-59
2024/03/17 07:46:12;;;;;;;12.20;3.33;;;;;;;6.02;72.21;100447.20;1707828;84;25413;-58
2024/03/17 07:48:41;;;;;;;14.43;3.87;;;;;;;5.96;72.91;100443.19;1707861;84;25569;-58
2024/03/17 07:51:13;;;;;;;12.30;2.92;;;;;;;5.98;72.38;100440.23;1707879;84;26164;-59
2024/03/17 07:53:54;;;;;;;9.63;2.90;;;;;;;5.96;72.59;100445.08;1708074;84;25219;-57
2024/03/17 07:56:20;;;;;;;10.15;2.70;;;;;;;5.97;72.67;100441.30;1708018;83;27364;-59
2024/03/17 07:58:51;;;;;;;10.88;2.67;;;;;;;6.03;73.55;100440.73;1707584;84;25621;-55
2024/03/17 08:01:20;;;;;;;14.10;3.20;;;;;;;6.11;73.48;100442.85;1746355;82;25644;-57
2024/03/17 08:03:55;;;;;;;10.05;2.87;;;;;;;6.19;73.76;100435.57;1746484;82;25712;-55
2024/03/17 08:06:18;;;;;;;7.03;2.72;;;;;;;6.28;73.86;100435.28;1745987;82;25462;-57
2024/03/17 08:08:45;;;;;;;11.10;2.42;;;;;;;6.37;72.61;100440.87;1746358;81;27306;-56
2024/03/17 08:11:15;;;;;;;9.78;2.65;;;;;;;6.44;72.76;100439.22;1746429;82;25511;-56
2024/03/17 08:13:44;;;;;;;11.78;2.80;;;;;;;6.48;72.21;100451.02;1719925;82;25338;-59
2024/03/17 08:16:14;;;;;;;11.45;2.92;;;;;;;6.49;71.97;100439.19;1745627;81;25572;-60
2024/03/17 08:18:40;;;;;;;12.25;3.40;;;;;;;6.51;72.56;100439.71;1746313;81;25399;-67
2024/03/17 08:21:07;;;;;;;10.32;3.08;;;;;;;6.60;73.05;100435.89;1746328;82;27903;-57
2024/03/17 08:23:42;;;;;;;12.75;3.12;;;;;;;6.67;72.09;100438.52;1746400;82;25558;-56
2024/03/17 08:26:09;;;;;;;7.65;3.22;;;;;;;6.69;71.67;100435.55;1745340;82;25432;-57
2024/03/17 08:28:36;;;;;;;13.48;3.92;;;;;;;6.69;72.12;100432.34;1746291;81;25931;-58
2024/03/17 08:31:08;;;;;;;12.13;2.95;;;;;;;6.75;71.95;100439.83;1746421;81;25571;-59
2024/03/17 08:33:35;;;;;;;14.15;3.10;;;;;;;6.83;72.12;100441.92;1746310;81;27202;-61
2024/03/17 08:36:07;;;;;;;11.00;3.33;;;;;;;6.88;71.98;100440.55;1746258;82;25615;-57
2024/03/17 08:38:38;;;;;;;5.87;2.80;;;;;;;6.91;71.29;100435.12;1746512;82;25552;-55
2024/03/17 08:41:09;;;;;;;11.15;3.10;;;;;;;6.87;70.76;100431.41;1745741;81;26679;-58
2024/03/17 08:43:41;;;;;;;10.45;3.22;;;;;;;6.86;71.02;100428.45;1746322;82;25534;-59
2024/03/17 08:46:13;;;;;;;10.13;2.60;;;;;;;6.86;69.20;100425.75;1746113;81;27995;-59
2024/03/17 08:48:43;;;;;;;7.92;2.65;;;;;;;6.84;70.90;100426.03;1746310;82;25615;-59
2024/03/17 08:51:10;;;;;;;10.98;2.83;;;;;;;6.85;70.81;100428.20;1746478;82;25394;-59
2024/03/17 08:53:40;;;;;;;9.58;2.80;;;;;;;6.86;70.05;100431.13;1746358;82;26075;-57
2024/03/17 08:56:08;;;;;;;13.53;3.27;;;;;;;6.87;70.17;100434.89;1746269;82;25642;-58
2024/03/17 08:58:34;;;;;;;11.80;3.35;;;;;;;6.87;69.74;100437.58;1746393;81;27343;-59
2024/03/17 09:01:08;;;;;;;10.50;2.87;;;;;;;6.81;68.97;100431.17;1746229;82;25586;-57
2024/03/17 09:03:37;;;;;;;11.57;4.20;;;;;;;6.80;70.16;100428.23;1746417;82;25556;-58
2024/03/17 09:06:21;;;;;;;10.03;3.35;;;;;;;6.80;70.28;100430.92;1745863;82;25577;-57
2024/03/17 09:08:46;;;;;;;11.05;3.10;;;;;;;6.78;69.99;100437.92;1746222;82;25605;-57
2024/03/17 09:11:18;;;;;;;9.28;3.15;;;;;;;6.80;70.42;100439.00;1746105;82;27332;-59
2024/03/17 09:13:45;;;;;;;10.03;2.90;;;;;;;6.86;70.30;100449.95;1746304;82;25656;-59
2024/03/17 09:16:18;;;;;;;7.95;2.70;;;;;;;6.88;69.59;100433.02;1746028;82;25557;-58
2024/03/17 09:18:43;;;;;;;10.95;3.27;;;;;;;6.85;68.83;100449.71;1745134;82;25633;-61
2024/03/17 09:21:16;;;;;;;6.80;2.75;;;;;;;6.81;69.50;100445.96;1746322;81;25563;-56
2024/03/17 09:26:20;;;;;;;8.30;2.60;;;;;;;6.68;68.47;100438.00;1746337;81;25424;-59
2024/03/17 09:28:47;;;;;;;50.17;24.87;;;;;;;6.58;68.54;100438.86;1746156;82;25534;-57
2024/03/17 09:31:21;;;;;;;29.05;16.67;;;;;;;6.48;68.64;100442.41;1746518;82;25775;-55
2024/03/17 09:33:52;;;;;;;49.03;25.02;;;;;;;6.42;69.15;100443.53;1746565;81;25443;-60
2024/03/17 09:36:21;;;;;;;11.20;3.65;;;;;;;6.34;69.17;100442.76;1746470;82;27395;-58
2024/03/17 09:38:48;;;;;;;15.03;3.17;;;;;;;6.30;69.23;100441.17;1746213;82;27196;-59
2024/03/17 09:41:27;;;;;;;11.63;3.45;;;;;;;6.26;70.10;100441.44;1746351;82;25420;-64
2024/03/17 09:43:59;;;;;;;7.53;2.67;;;;;;;6.21;70.20;100445.49;1739316;82;25645;-63
2024/03/17 09:46:29;;;;;;;7.08;3.15;;;;;;;6.11;70.51;100459.80;1739049;82;25386;-64
2024/03/17 09:48:58;;;;;;;6.97;2.87;;;;;;;6.01;70.73;100458.48;1739012;82;27699;-63
2024/03/17 09:51:27;;;;;;;6.25;2.40;;;;;;;5.87;70.66;100454.18;1738870;82;25602;-64
2024/03/17 09:53:54;;;;;;;5.17;2.70;;;;;;;5.74;71.19;100455.58;1739011;82;25544;-64
2024/03/17 09:56:22;;;;;;;6.40;2.02;;;;;;;5.69;72.11;100451.56;1738909;82;25669;-66
2024/03/17 09:58:52;;;;;;;7.45;2.85;;;;;;;5.69;71.91;100451.56;1739090;82;25433;-65
2024/03/17 10:01:20;;;;;;;4.92;2.30;;;;;;;5.68;71.84;100449.95;1738973;82;27912;-65
2024/03/17 10:03:58;;;;;;;4.15;1.98;;;;;;;5.72;72.47;100452.37;1739032;82;25424;-64
2024/03/17 10:06:28;;;;;;;6.85;2.58;;;;;;;5.82;72.78;100458.77;1738672;82;25562;-66
2024/03/17 10:09:09;;;;;;;7.65;2.25;;;;;;;5.94;72.68;100458.75;1738975;82;25723;-66
2024/03/17 10:11:36;;;;;;;9.98;2.45;;;;;;;6.08;72.73;100454.14;1736473;82;25462;-66
2024/03/17 10:14:09;;;;;;;6.25;2.90;;;;;;;6.20;72.46;100457.86;1738994;82;27399;-66
2024/03/17 10:16:39;;;;;;;5.20;2.00;;;;;;;6.28;72.06;100459.97;1738907;82;25456;-66
2024/03/17 10:19:13;;;;;;;6.47;2.20;;;;;;;6.40;72.35;100453.73;1739107;82;25569;-60
2024/03/17 10:21:49;;;;;;;16.40;9.10;;;;;;;6.55;71.98;100454.19;1739036;82;25752;-60
2024/03/17 10:24:30;;;;;;;10.05;5.33;;;;;;;6.69;72.73;100450.34;1738983;82;25618;-60
2024/03/17 10:26:59;;;;;;;5.00;3.08;;;;;;;6.84;71.44;100448.89;1738541;82;27715;-62
2024/03/17 10:29:36;;;;;;;5.78;2.27;;;;;;;6.85;69.51;100450.50;1738917;82;25469;-63
2024/03/17 10:32:14;;;;;;;3.00;1.80;;;;;;;6.85;69.18;100446.47;1739053;82;25404;-58
2024/03/17 10:34:40;;;;;;;3.55;2.05;;;;;;;6.85;69.52;100455.09;1739042;82;26183;-61
2024/03/17 10:37:22;;;;;;;3.98;1.90;;;;;;;6.84;69.50;100450.23;1738948;82;25586;-62
2024/03/17 10:39:55;;;;;;;5.10;2.12;;;;;;;6.81;69.16;100454.85;1739020;82;27330;-57
2024/03/17 10:42:31;;;;;;;2.58;1.50;;;;;;;6.69;68.80;100459.75;1742458;81;25555;-61
2024/03/17 10:45:01;;;;;;;5.22;2.10;;;;;;;6.62;69.04;100451.20;1752839;81;25587;-59
2024/03/17 10:47:29;;;;;;;7.60;2.02;;;;;;;6.57;69.41;100447.20;1725242;81;25760;-56
2024/03/17 10:50:04;;;;;;;7.28;2.52;;;;;;;6.54;68.90;100456.63;1752821;81;25394;-62
2024/03/17 10:52:35;;;;;;;6.60;2.05;;;;;;;6.45;69.04;100457.76;1752874;81;28241;-60
2024/03/17 10:55:09;;;;;;;6.90;2.12;;;;;;;6.34;68.75;100451.61;1752695;81;25460;-59
2024/03/17 10:57:50;;;;;;;5.60;2.22;;;;;;;6.28;69.08;100442.51;1752769;81;25607;-57
2024/03/17 11:00:23;;;;;;;5.05;2.35;;;;;;;6.19;69.51;100444.97;1752712;81;25671;-57
2024/03/17 11:02:58;;;;;;;7.55;2.60;;;;;;;6.11;69.57;100454.42;1752774;81;25601;-58
2024/03/17 11:05:29;;;;;;;6.65;2.85;;;;;;;5.95;69.76;100451.48;1752795;81;28376;-60
2024/03/17 11:08:03;;;;;;;4.80;2.65;;;;;;;5.88;70.53;100454.46;1752804;81;25489;-58
2024/03/17 11:10:38;;;;;;;11.95;7.60;;;;;;;5.86;71.12;100451.80;1752804;81;25568;-58
2024/03/17 11:13:05;;;;;;;37.20;22.27;;;;;;;5.83;71.66;100451.79;1752729;81;26291;-61
2024/03/17 11:15:39;;;;;;;7.12;4.15;;;;;;;5.85;71.61;100456.89;1752745;81;25424;-57
2024/03/17 11:18:13;;;;;;;4.37;2.72;;;;;;;5.81;71.90;100443.21;1752364;81;27444;-61
2024/03/17 11:20:45;;;;;;;4.83;2.55;;;;;;;5.82;72.57;100439.98;1752664;81;25484;-64
2024/03/17 11:23:17;;;;;;;5.95;3.17;;;;;;;5.79;72.96;100450.20;1745702;81;25590;-67
2024/03/17 11:25:52;;;;;;;5.17;2.85;;;;;;;5.73;72.87;100447.25;1746622;81;27856;-63
2024/03/17 11:28:46;;;;;;;5.33;2.40;;;;;;;5.71;73.21;100443.24;1752401;81;25636;-63
2024/03/17 11:31:43;;;;;;;3.05;2.20;;;;;;;5.68;73.34;100460.68;1741823;81;27508;-63
2024/03/17 11:34:36;;;;;;;4.33;2.98;;;;;;;5.58;73.67;100464.72;1741234;82;25729;-61
2024/03/17 11:37:10;;;;;;;3.95;2.33;;;;;;;5.49;74.54;100454.28;1741898;82;25671;-61
2024/03/17 11:39:56;;;;;;;6.62;2.87;;;;;;;5.41;75.49;100459.65;1741018;82;27827;-62
2024/03/17 11:42:28;;;;;;;9.43;3.98;;;;;;;5.34;76.18;100446.51;1741970;82;25411;-60
2024/03/17 11:45:09;;;;;;;8.35;4.37;;;;;;;5.34;76.74;100453.22;1741861;82;27351;-60
2024/03/17 11:47:42;;;;;;;18.05;12.30;;;;;;;5.37;77.25;100453.23;1717284;82;25708;-58